sensor_id;sensor_type;location;lat;lon;timestamp;P1;durP1;ratioP1;P2;durP2;ratioP2
13641;SDS011;6894;52.196;9.904;2024-02-26T00:01:27;2.70;;;1.70;;
13641;SDS011;6894;52.196;9.904;2024-02-26T00:03:55;2.23;;;1.67;;
13641;SDS011;6894;52.196;9.904;2024-02-26T00:06:24;2.07;;;1.60;;
13641;SDS011;6894;52.196;9.904;2024-02-26T00:08:51;2.57;;;2.20;;
13641;SDS011;6894;52.196;9.904;2024-02-26T00:11:18;1.90;;;1.77;;
13641;SDS011;6894;52.196;9.904;2024-02-26T00:13:44;2.23;;;1.80;;
13641;SDS011;6894;52.196;9.904;2024-02-26T00:16:11;1.80;;;1.70;;
13641;SDS011;6894;52.196;9.904;2024-02-26T00:18:38;4.50;;;2.07;;
13641;SDS011;6894;52.196;9.904;2024-02-26T00:21:06;2.00;;;1.67;;
13641;SDS011;6894;52.196;9.904;2024-02-26T00:23:33;2.53;;;2.00;;
13641;SDS011;6894;52.196;9.904;2024-02-26T00:25:59;2.30;;;1.70;;
13641;SDS011;6894;52.196;9.904;2024-02-26T00:28:26;2.97;;;2.23;;
13641;SDS011;6894;52.196;9.904;2024-02-26T00:30:54;2.57;;;2.07;;
13641;SDS011;6894;52.196;9.904;2024-02-26T00:33:21;2.47;;;1.60;;
13641;SDS011;6894;52.196;9.904;2024-02-26T00:35:48;2.27;;;1.90;;
13641;SDS011;6894;52.196;9.904;2024-02-26T00:38:16;2.90;;;2.23;;
13641;SDS011;6894;52.196;9.904;2024-02-26T00:40:43;3.47;;;2.40;;
13641;SDS011;6894;52.196;9.904;2024-02-26T00:43:10;2.93;;;1.90;;
13641;SDS011;6894;52.196;9.904;2024-02-26T00:45:36;2.57;;;2.07;;
13641;SDS011;6894;52.196;9.904;2024-02-26T00:48:03;2.53;;;1.80;;
13641;SDS011;6894;52.196;9.904;2024-02-26T00:50:31;2.73;;;2.00;;
13641;SDS011;6894;52.196;9.904;2024-02-26T00:52:58;3.53;;;2.30;;
13641;SDS011;6894;52.196;9.904;2024-02-26T00:55:26;3.17;;;2.43;;
13641;SDS011;6894;52.196;9.904;2024-02-26T00:57:53;3.87;;;2.23;;
13641;SDS011;6894;52.196;9.904;2024-02-26T01:00:19;4.77;;;1.83;;
13641;SDS011;6894;52.196;9.904;2024-02-26T01:02:46;2.97;;;2.43;;
13641;SDS011;6894;52.196;9.904;2024-02-26T01:05:13;3.10;;;2.80;;
13641;SDS011;6894;52.196;9.904;2024-02-26T01:07:41;2.60;;;2.27;;
13641;SDS011;6894;52.196;9.904;2024-02-26T01:10:08;3.57;;;2.67;;
13641;SDS011;6894;52.196;9.904;2024-02-26T01:12:37;3.27;;;2.40;;
13641;SDS011;6894;52.196;9.904;2024-02-26T01:15:04;3.83;;;2.50;;
13641;SDS011;6894;52.196;9.904;2024-02-26T01:17:31;3.90;;;3.07;;
13641;SDS011;6894;52.196;9.904;2024-02-26T01:19:58;2.83;;;2.53;;
13641;SDS011;6894;52.196;9.904;2024-02-26T01:22:25;3.50;;;2.57;;
13641;SDS011;6894;52.196;9.904;2024-02-26T01:24:51;3.23;;;2.90;;
13641;SDS011;6894;52.196;9.904;2024-02-26T01:27:18;4.27;;;2.97;;
13641;SDS011;6894;52.196;9.904;2024-02-26T01:29:46;3.20;;;2.40;;
13641;SDS011;6894;52.196;9.904;2024-02-26T01:32:13;4.90;;;2.47;;
13641;SDS011;6894;52.196;9.904;2024-02-26T01:34:40;3.60;;;3.23;;
13641;SDS011;6894;52.196;9.904;2024-02-26T01:37:06;2.50;;;2.30;;
13641;SDS011;6894;52.196;9.904;2024-02-26T01:39:33;2.30;;;2.10;;
13641;SDS011;6894;52.196;9.904;2024-02-26T01:42:00;4.17;;;2.30;;
13641;SDS011;6894;52.196;9.904;2024-02-26T01:44:27;3.67;;;2.63;;
13641;SDS011;6894;52.196;9.904;2024-02-26T01:46:55;3.03;;;2.43;;
13641;SDS011;6894;52.196;9.904;2024-02-26T01:49:22;2.97;;;2.23;;
13641;SDS011;6894;52.196;9.904;2024-02-26T01:51:49;3.37;;;2.70;;
13641;SDS011;6894;52.196;9.904;2024-02-26T01:54:16;3.37;;;2.40;;
13641;SDS011;6894;52.196;9.904;2024-02-26T01:56:43;2.50;;;2.30;;
13641;SDS011;6894;52.196;9.904;2024-02-26T01:59:10;3.33;;;3.03;;
13641;SDS011;6894;52.196;9.904;2024-02-26T02:01:36;4.40;;;2.80;;
13641;SDS011;6894;52.196;9.904;2024-02-26T02:04:10;6.90;;;5.03;;
13641;SDS011;6894;52.196;9.904;2024-02-26T02:06:37;8.63;;;6.00;;
13641;SDS011;6894;52.196;9.904;2024-02-26T02:09:04;6.83;;;5.23;;
13641;SDS011;6894;52.196;9.904;2024-02-26T02:11:32;7.23;;;5.20;;
13641;SDS011;6894;52.196;9.904;2024-02-26T02:13:59;4.13;;;3.40;;
13641;SDS011;6894;52.196;9.904;2024-02-26T02:16:26;5.90;;;3.83;;
13641;SDS011;6894;52.196;9.904;2024-02-26T02:18:53;6.23;;;4.50;;
13641;SDS011;6894;52.196;9.904;2024-02-26T02:21:21;3.03;;;2.53;;
13641;SDS011;6894;52.196;9.904;2024-02-26T02:23:47;3.67;;;2.87;;
13641;SDS011;6894;52.196;9.904;2024-02-26T02:26:14;3.47;;;3.17;;
13641;SDS011;6894;52.196;9.904;2024-02-26T02:28:42;3.13;;;2.70;;
13641;SDS011;6894;52.196;9.904;2024-02-26T02:31:09;3.80;;;2.77;;
13641;SDS011;6894;52.196;9.904;2024-02-26T02:33:36;3.37;;;2.50;;
13641;SDS011;6894;52.196;9.904;2024-02-26T02:36:03;2.97;;;2.30;;
13641;SDS011;6894;52.196;9.904;2024-02-26T02:38:36;3.40;;;2.73;;
13641;SDS011;6894;52.196;9.904;2024-02-26T02:41:03;2.90;;;2.30;;
13641;SDS011;6894;52.196;9.904;2024-02-26T02:43:30;4.13;;;3.03;;
13641;SDS011;6894;52.196;9.904;2024-02-26T02:45:56;3.13;;;2.50;;
13641;SDS011;6894;52.196;9.904;2024-02-26T02:48:23;2.50;;;2.30;;
13641;SDS011;6894;52.196;9.904;2024-02-26T02:50:50;4.23;;;2.57;;
13641;SDS011;6894;52.196;9.904;2024-02-26T02:53:17;3.10;;;2.80;;
13641;SDS011;6894;52.196;9.904;2024-02-26T02:55:45;3.10;;;2.53;;
13641;SDS011;6894;52.196;9.904;2024-02-26T02:58:11;3.67;;;2.70;;
13641;SDS011;6894;52.196;9.904;2024-02-26T03:00:38;2.50;;;2.30;;
13641;SDS011;6894;52.196;9.904;2024-02-26T03:03:05;2.73;;;2.40;;
13641;SDS011;6894;52.196;9.904;2024-02-26T03:05:32;2.90;;;2.40;;
13641;SDS011;6894;52.196;9.904;2024-02-26T03:07:59;2.60;;;2.40;;
13641;SDS011;6894;52.196;9.904;2024-02-26T03:10:25;3.17;;;2.40;;
13641;SDS011;6894;52.196;9.904;2024-02-26T03:12:54;2.63;;;2.40;;
13641;SDS011;6894;52.196;9.904;2024-02-26T03:15:21;3.23;;;2.60;;
13641;SDS011;6894;52.196;9.904;2024-02-26T03:17:48;2.77;;;2.50;;
13641;SDS011;6894;52.196;9.904;2024-02-26T03:20:14;2.80;;;2.47;;
13641;SDS011;6894;52.196;9.904;2024-02-26T03:22:44;4.47;;;2.37;;
13641;SDS011;6894;52.196;9.904;2024-02-26T03:25:11;2.50;;;2.10;;
13641;SDS011;6894;52.196;9.904;2024-02-26T03:27:38;2.70;;;2.27;;
13641;SDS011;6894;52.196;9.904;2024-02-26T03:30:07;2.50;;;2.27;;
13641;SDS011;6894;52.196;9.904;2024-02-26T03:32:35;4.17;;;2.80;;
13641;SDS011;6894;52.196;9.904;2024-02-26T03:35:02;3.67;;;2.93;;
13641;SDS011;6894;52.196;9.904;2024-02-26T03:37:29;3.10;;;2.80;;
13641;SDS011;6894;52.196;9.904;2024-02-26T03:39:55;2.83;;;2.53;;
13641;SDS011;6894;52.196;9.904;2024-02-26T03:42:23;5.03;;;2.03;;
13641;SDS011;6894;52.196;9.904;2024-02-26T03:44:49;4.43;;;2.80;;
13641;SDS011;6894;52.196;9.904;2024-02-26T03:47:17;4.30;;;3.20;;
13641;SDS011;6894;52.196;9.904;2024-02-26T03:49:44;2.97;;;2.67;;
13641;SDS011;6894;52.196;9.904;2024-02-26T03:52:11;3.07;;;2.57;;
13641;SDS011;6894;52.196;9.904;2024-02-26T03:54:38;3.93;;;2.83;;
13641;SDS011;6894;52.196;9.904;2024-02-26T03:57:04;4.53;;;2.97;;
13641;SDS011;6894;52.196;9.904;2024-02-26T03:59:31;4.73;;;2.90;;
13641;SDS011;6894;52.196;9.904;2024-02-26T04:01:58;4.47;;;2.93;;
13641;SDS011;6894;52.196;9.904;2024-02-26T04:04:28;3.60;;;2.90;;
13641;SDS011;6894;52.196;9.904;2024-02-26T04:06:54;4.00;;;3.20;;
13641;SDS011;6894;52.196;9.904;2024-02-26T04:09:21;5.00;;;3.10;;
13641;SDS011;6894;52.196;9.904;2024-02-26T04:11:48;4.40;;;3.40;;
13641;SDS011;6894;52.196;9.904;2024-02-26T04:14:15;4.20;;;3.13;;
13641;SDS011;6894;52.196;9.904;2024-02-26T04:16:41;3.83;;;2.77;;
13641;SDS011;6894;52.196;9.904;2024-02-26T04:19:08;3.03;;;2.60;;
13641;SDS011;6894;52.196;9.904;2024-02-26T04:21:36;3.77;;;2.50;;
13641;SDS011;6894;52.196;9.904;2024-02-26T04:24:03;3.70;;;2.50;;
13641;SDS011;6894;52.196;9.904;2024-02-26T04:26:30;3.70;;;2.17;;
13641;SDS011;6894;52.196;9.904;2024-02-26T04:28:57;3.03;;;2.60;;
13641;SDS011;6894;52.196;9.904;2024-02-26T04:31:24;3.60;;;2.60;;
13641;SDS011;6894;52.196;9.904;2024-02-26T04:33:51;2.90;;;2.60;;
13641;SDS011;6894;52.196;9.904;2024-02-26T04:36:17;2.80;;;2.50;;
13641;SDS011;6894;52.196;9.904;2024-02-26T04:38:46;5.07;;;2.50;;
13641;SDS011;6894;52.196;9.904;2024-02-26T04:41:12;4.10;;;2.80;;
13641;SDS011;6894;52.196;9.904;2024-02-26T04:43:39;4.03;;;2.20;;
13641;SDS011;6894;52.196;9.904;2024-02-26T04:46:07;3.03;;;2.20;;
13641;SDS011;6894;52.196;9.904;2024-02-26T04:48:34;3.10;;;2.50;;
13641;SDS011;6894;52.196;9.904;2024-02-26T04:51:01;4.37;;;2.77;;
13641;SDS011;6894;52.196;9.904;2024-02-26T04:53:29;2.63;;;2.10;;
13641;SDS011;6894;52.196;9.904;2024-02-26T04:55:57;2.83;;;2.33;;
13641;SDS011;6894;52.196;9.904;2024-02-26T04:58:24;3.20;;;2.60;;
13641;SDS011;6894;52.196;9.904;2024-02-26T05:00:50;2.77;;;2.53;;
13641;SDS011;6894;52.196;9.904;2024-02-26T05:03:17;5.83;;;3.13;;
13641;SDS011;6894;52.196;9.904;2024-02-26T05:05:44;3.87;;;2.73;;
13641;SDS011;6894;52.196;9.904;2024-02-26T05:08:11;2.87;;;2.57;;
13641;SDS011;6894;52.196;9.904;2024-02-26T05:10:38;2.67;;;2.30;;
13641;SDS011;6894;52.196;9.904;2024-02-26T05:13:07;2.70;;;2.40;;
13641;SDS011;6894;52.196;9.904;2024-02-26T05:15:34;3.50;;;2.30;;
13641;SDS011;6894;52.196;9.904;2024-02-26T05:18:01;3.40;;;2.70;;
13641;SDS011;6894;52.196;9.904;2024-02-26T05:20:28;9.60;;;6.40;;
13641;SDS011;6894;52.196;9.904;2024-02-26T05:22:56;6.27;;;4.83;;
13641;SDS011;6894;52.196;9.904;2024-02-26T05:25:23;3.07;;;2.40;;
13641;SDS011;6894;52.196;9.904;2024-02-26T05:27:50;3.93;;;3.03;;
13641;SDS011;6894;52.196;9.904;2024-02-26T05:30:18;2.77;;;2.43;;
13641;SDS011;6894;52.196;9.904;2024-02-26T05:32:45;3.90;;;2.70;;
13641;SDS011;6894;52.196;9.904;2024-02-26T05:35:12;4.43;;;3.23;;
13641;SDS011;6894;52.196;9.904;2024-02-26T05:37:40;3.40;;;3.03;;
13641;SDS011;6894;52.196;9.904;2024-02-26T05:40:07;4.07;;;2.97;;
13641;SDS011;6894;52.196;9.904;2024-02-26T05:42:34;3.73;;;2.93;;
13641;SDS011;6894;52.196;9.904;2024-02-26T05:45:01;3.23;;;2.70;;
13641;SDS011;6894;52.196;9.904;2024-02-26T05:47:32;2.93;;;2.50;;
13641;SDS011;6894;52.196;9.904;2024-02-26T05:49:59;3.83;;;3.30;;
13641;SDS011;6894;52.196;9.904;2024-02-26T05:52:26;5.77;;;3.20;;
13641;SDS011;6894;52.196;9.904;2024-02-26T05:54:52;4.13;;;3.20;;
13641;SDS011;6894;52.196;9.904;2024-02-26T05:57:19;3.50;;;3.20;;
13641;SDS011;6894;52.196;9.904;2024-02-26T05:59:46;3.43;;;3.13;;
13641;SDS011;6894;52.196;9.904;2024-02-26T06:02:13;3.57;;;3.17;;
13641;SDS011;6894;52.196;9.904;2024-02-26T06:04:41;4.53;;;3.80;;
13641;SDS011;6894;52.196;9.904;2024-02-26T06:07:08;5.30;;;3.43;;
13641;SDS011;6894;52.196;9.904;2024-02-26T06:09:35;4.03;;;3.53;;
13641;SDS011;6894;52.196;9.904;2024-02-26T06:12:01;3.50;;;3.13;;
13641;SDS011;6894;52.196;9.904;2024-02-26T06:14:28;4.37;;;3.33;;
13641;SDS011;6894;52.196;9.904;2024-02-26T06:16:55;4.37;;;3.63;;
13641;SDS011;6894;52.196;9.904;2024-02-26T06:19:22;3.70;;;3.40;;
13641;SDS011;6894;52.196;9.904;2024-02-26T06:21:50;4.53;;;3.37;;
13641;SDS011;6894;52.196;9.904;2024-02-26T06:24:17;4.07;;;3.53;;
13641;SDS011;6894;52.196;9.904;2024-02-26T06:26:45;3.83;;;3.43;;
13641;SDS011;6894;52.196;9.904;2024-02-26T06:29:12;5.53;;;3.50;;
13641;SDS011;6894;52.196;9.904;2024-02-26T06:31:39;5.47;;;3.50;;
13641;SDS011;6894;52.196;9.904;2024-02-26T06:34:06;4.90;;;3.60;;
13641;SDS011;6894;52.196;9.904;2024-02-26T06:36:33;3.77;;;3.40;;
13641;SDS011;6894;52.196;9.904;2024-02-26T06:39:01;4.20;;;3.60;;
13641;SDS011;6894;52.196;9.904;2024-02-26T06:41:30;2.90;;;2.60;;
13641;SDS011;6894;52.196;9.904;2024-02-26T06:43:57;5.07;;;3.30;;
13641;SDS011;6894;52.196;9.904;2024-02-26T06:46:24;5.17;;;3.73;;
13641;SDS011;6894;52.196;9.904;2024-02-26T06:48:51;4.77;;;3.40;;
13641;SDS011;6894;52.196;9.904;2024-02-26T06:51:18;4.47;;;3.90;;
13641;SDS011;6894;52.196;9.904;2024-02-26T06:53:45;5.00;;;4.30;;
13641;SDS011;6894;52.196;9.904;2024-02-26T06:56:13;4.10;;;3.70;;
13641;SDS011;6894;52.196;9.904;2024-02-26T06:58:40;4.80;;;4.27;;
13641;SDS011;6894;52.196;9.904;2024-02-26T07:01:06;4.20;;;3.70;;
13641;SDS011;6894;52.196;9.904;2024-02-26T07:03:34;4.63;;;3.73;;
13641;SDS011;6894;52.196;9.904;2024-02-26T07:06:01;6.80;;;4.33;;
13641;SDS011;6894;52.196;9.904;2024-02-26T07:08:28;5.07;;;4.37;;
13641;SDS011;6894;52.196;9.904;2024-02-26T07:10:54;5.30;;;4.77;;
13641;SDS011;6894;52.196;9.904;2024-02-26T07:13:22;4.27;;;3.87;;
13641;SDS011;6894;52.196;9.904;2024-02-26T07:15:49;4.80;;;4.10;;
13641;SDS011;6894;52.196;9.904;2024-02-26T07:18:16;4.30;;;3.90;;
13641;SDS011;6894;52.196;9.904;2024-02-26T07:20:43;4.97;;;4.47;;
13641;SDS011;6894;52.196;9.904;2024-02-26T07:23:09;5.37;;;4.87;;
13641;SDS011;6894;52.196;9.904;2024-02-26T07:25:37;8.73;;;4.97;;
13641;SDS011;6894;52.196;9.904;2024-02-26T07:28:04;5.30;;;4.80;;
13641;SDS011;6894;52.196;9.904;2024-02-26T07:30:33;8.67;;;5.13;;
13641;SDS011;6894;52.196;9.904;2024-02-26T07:33:00;4.73;;;4.23;;
13641;SDS011;6894;52.196;9.904;2024-02-26T07:35:26;7.43;;;5.40;;
13641;SDS011;6894;52.196;9.904;2024-02-26T07:37:53;6.13;;;5.53;;
13641;SDS011;6894;52.196;9.904;2024-02-26T07:40:20;5.53;;;4.53;;
13641;SDS011;6894;52.196;9.904;2024-02-26T07:42:47;7.23;;;4.77;;
13641;SDS011;6894;52.196;9.904;2024-02-26T07:45:13;5.67;;;4.40;;
13641;SDS011;6894;52.196;9.904;2024-02-26T07:47:46;5.83;;;4.77;;
13641;SDS011;6894;52.196;9.904;2024-02-26T07:50:12;5.20;;;4.70;;
13641;SDS011;6894;52.196;9.904;2024-02-26T07:52:39;4.73;;;4.23;;
13641;SDS011;6894;52.196;9.904;2024-02-26T07:55:06;4.87;;;4.47;;
13641;SDS011;6894;52.196;9.904;2024-02-26T07:57:34;5.30;;;4.60;;
13641;SDS011;6894;52.196;9.904;2024-02-26T08:00:01;6.03;;;4.97;;
13641;SDS011;6894;52.196;9.904;2024-02-26T08:02:28;6.37;;;5.17;;
13641;SDS011;6894;52.196;9.904;2024-02-26T08:04:56;5.03;;;4.50;;
13641;SDS011;6894;52.196;9.904;2024-02-26T08:07:23;6.40;;;4.30;;
13641;SDS011;6894;52.196;9.904;2024-02-26T08:09:49;4.93;;;4.17;;
13641;SDS011;6894;52.196;9.904;2024-02-26T08:12:16;4.90;;;4.20;;
13641;SDS011;6894;52.196;9.904;2024-02-26T08:14:43;4.70;;;4.30;;
13641;SDS011;6894;52.196;9.904;2024-02-26T08:17:10;5.67;;;4.20;;
13641;SDS011;6894;52.196;9.904;2024-02-26T08:19:37;4.63;;;3.80;;
13641;SDS011;6894;52.196;9.904;2024-02-26T08:22:05;4.27;;;3.70;;
13641;SDS011;6894;52.196;9.904;2024-02-26T08:24:32;3.90;;;3.57;;
13641;SDS011;6894;52.196;9.904;2024-02-26T08:26:58;5.07;;;4.50;;
13641;SDS011;6894;52.196;9.904;2024-02-26T08:29:25;4.30;;;3.50;;
13641;SDS011;6894;52.196;9.904;2024-02-26T08:31:52;3.70;;;3.40;;
13641;SDS011;6894;52.196;9.904;2024-02-26T08:34:19;4.17;;;3.50;;
13641;SDS011;6894;52.196;9.904;2024-02-26T08:36:46;5.27;;;3.50;;
13641;SDS011;6894;52.196;9.904;2024-02-26T08:39:15;3.27;;;3.03;;
13641;SDS011;6894;52.196;9.904;2024-02-26T08:41:42;3.73;;;3.37;;
13641;SDS011;6894;52.196;9.904;2024-02-26T08:44:09;3.90;;;3.47;;
13641;SDS011;6894;52.196;9.904;2024-02-26T08:46:36;3.60;;;3.30;;
13641;SDS011;6894;52.196;9.904;2024-02-26T08:49:02;4.10;;;3.70;;
13641;SDS011;6894;52.196;9.904;2024-02-26T08:51:30;4.90;;;3.53;;
13641;SDS011;6894;52.196;9.904;2024-02-26T08:53:55;3.40;;;3.10;;
13641;SDS011;6894;52.196;9.904;2024-02-26T08:56:24;4.57;;;3.17;;
13641;SDS011;6894;52.196;9.904;2024-02-26T08:58:50;3.57;;;3.27;;
13641;SDS011;6894;52.196;9.904;2024-02-26T09:01:18;3.80;;;3.40;;
13641;SDS011;6894;52.196;9.904;2024-02-26T09:03:46;4.70;;;4.00;;
13641;SDS011;6894;52.196;9.904;2024-02-26T09:06:14;2.87;;;2.53;;
13641;SDS011;6894;52.196;9.904;2024-02-26T09:08:41;3.70;;;3.20;;
13641;SDS011;6894;52.196;9.904;2024-02-26T09:11:07;5.67;;;3.13;;
13641;SDS011;6894;52.196;9.904;2024-02-26T09:13:36;3.63;;;2.93;;
13641;SDS011;6894;52.196;9.904;2024-02-26T09:16:03;3.37;;;2.87;;
13641;SDS011;6894;52.196;9.904;2024-02-26T09:18:31;2.93;;;2.60;;
13641;SDS011;6894;52.196;9.904;2024-02-26T09:20:58;3.63;;;2.93;;
13641;SDS011;6894;52.196;9.904;2024-02-26T09:23:25;2.90;;;2.67;;
13641;SDS011;6894;52.196;9.904;2024-02-26T09:25:52;3.20;;;2.90;;
13641;SDS011;6894;52.196;9.904;2024-02-26T09:28:18;4.07;;;2.97;;
13641;SDS011;6894;52.196;9.904;2024-02-26T09:30:46;2.90;;;2.60;;
13641;SDS011;6894;52.196;9.904;2024-02-26T09:33:14;3.40;;;3.10;;
13641;SDS011;6894;52.196;9.904;2024-02-26T09:35:41;4.20;;;2.90;;
13641;SDS011;6894;52.196;9.904;2024-02-26T09:38:07;3.53;;;3.03;;
13641;SDS011;6894;52.196;9.904;2024-02-26T09:40:34;3.00;;;2.70;;
13641;SDS011;6894;52.196;9.904;2024-02-26T09:43:02;2.60;;;2.40;;
13641;SDS011;6894;52.196;9.904;2024-02-26T09:45:32;3.67;;;2.70;;
13641;SDS011;6894;52.196;9.904;2024-02-26T09:48:02;3.20;;;2.90;;
13641;SDS011;6894;52.196;9.904;2024-02-26T09:50:30;2.73;;;2.53;;
13641;SDS011;6894;52.196;9.904;2024-02-26T09:52:57;4.10;;;2.77;;
13641;SDS011;6894;52.196;9.904;2024-02-26T09:55:27;2.73;;;2.43;;
13641;SDS011;6894;52.196;9.904;2024-02-26T09:57:54;4.73;;;2.77;;
13641;SDS011;6894;52.196;9.904;2024-02-26T10:00:23;2.80;;;2.60;;
13641;SDS011;6894;52.196;9.904;2024-02-26T10:02:57;4.03;;;2.87;;
13641;SDS011;6894;52.196;9.904;2024-02-26T10:05:27;2.60;;;2.40;;
13641;SDS011;6894;52.196;9.904;2024-02-26T10:07:56;2.70;;;2.50;;
13641;SDS011;6894;52.196;9.904;2024-02-26T10:10:26;4.07;;;3.03;;
13641;SDS011;6894;52.196;9.904;2024-02-26T10:12:54;2.80;;;2.37;;
13641;SDS011;6894;52.196;9.904;2024-02-26T10:15:20;2.53;;;2.33;;
13641;SDS011;6894;52.196;9.904;2024-02-26T10:17:47;3.33;;;2.90;;
13641;SDS011;6894;52.196;9.904;2024-02-26T10:20:15;3.30;;;3.00;;
13641;SDS011;6894;52.196;9.904;2024-02-26T10:22:44;3.00;;;2.70;;
13641;SDS011;6894;52.196;9.904;2024-02-26T10:25:11;3.53;;;3.00;;
13641;SDS011;6894;52.196;9.904;2024-02-26T10:27:39;2.53;;;2.33;;
13641;SDS011;6894;52.196;9.904;2024-02-26T10:30:15;2.77;;;2.57;;
13641;SDS011;6894;52.196;9.904;2024-02-26T10:32:44;2.70;;;2.50;;
13641;SDS011;6894;52.196;9.904;2024-02-26T10:35:11;2.60;;;2.40;;
13641;SDS011;6894;52.196;9.904;2024-02-26T10:37:38;2.70;;;2.50;;
13641;SDS011;6894;52.196;9.904;2024-02-26T10:40:08;2.37;;;2.17;;
13641;SDS011;6894;52.196;9.904;2024-02-26T10:42:36;4.00;;;2.47;;
13641;SDS011;6894;52.196;9.904;2024-02-26T10:45:04;3.70;;;2.77;;
13641;SDS011;6894;52.196;9.904;2024-02-26T10:47:31;2.60;;;2.40;;
13641;SDS011;6894;52.196;9.904;2024-02-26T10:49:59;3.40;;;2.47;;
13641;SDS011;6894;52.196;9.904;2024-02-26T10:52:27;5.03;;;2.30;;
13641;SDS011;6894;52.196;9.904;2024-02-26T10:54:57;2.90;;;2.20;;
13641;SDS011;6894;52.196;9.904;2024-02-26T10:57:28;2.23;;;1.87;;
13641;SDS011;6894;52.196;9.904;2024-02-26T10:59:58;2.80;;;2.10;;
13641;SDS011;6894;52.196;9.904;2024-02-26T11:02:26;3.07;;;2.10;;
13641;SDS011;6894;52.196;9.904;2024-02-26T11:04:53;2.67;;;1.90;;
13641;SDS011;6894;52.196;9.904;2024-02-26T11:07:21;3.30;;;1.97;;
13641;SDS011;6894;52.196;9.904;2024-02-26T11:09:48;2.90;;;2.07;;
13641;SDS011;6894;52.196;9.904;2024-02-26T11:12:18;3.13;;;1.93;;
13641;SDS011;6894;52.196;9.904;2024-02-26T11:14:49;2.50;;;2.20;;
13641;SDS011;6894;52.196;9.904;2024-02-26T11:17:20;2.60;;;2.23;;
13641;SDS011;6894;52.196;9.904;2024-02-26T11:19:48;2.97;;;2.30;;
13641;SDS011;6894;52.196;9.904;2024-02-26T11:22:17;2.53;;;2.00;;
13641;SDS011;6894;52.196;9.904;2024-02-26T11:24:46;1.63;;;1.53;;
13641;SDS011;6894;52.196;9.904;2024-02-26T11:27:14;2.63;;;1.97;;
13641;SDS011;6894;52.196;9.904;2024-02-26T11:29:46;2.57;;;2.10;;
13641;SDS011;6894;52.196;9.904;2024-02-26T11:32:17;3.33;;;2.40;;
13641;SDS011;6894;52.196;9.904;2024-02-26T11:34:44;3.70;;;2.97;;
13641;SDS011;6894;52.196;9.904;2024-02-26T11:37:11;4.60;;;2.83;;
13641;SDS011;6894;52.196;9.904;2024-02-26T11:39:39;4.10;;;2.60;;
13641;SDS011;6894;52.196;9.904;2024-02-26T11:42:07;1.80;;;1.70;;
13641;SDS011;6894;52.196;9.904;2024-02-26T11:44:35;2.40;;;2.20;;
13641;SDS011;6894;52.196;9.904;2024-02-26T11:47:10;2.20;;;2.00;;
13641;SDS011;6894;52.196;9.904;2024-02-26T11:49:38;3.17;;;2.20;;
13641;SDS011;6894;52.196;9.904;2024-02-26T11:52:05;2.77;;;1.93;;
13641;SDS011;6894;52.196;9.904;2024-02-26T11:54:43;2.70;;;1.93;;
13641;SDS011;6894;52.196;9.904;2024-02-26T11:57:21;3.47;;;2.07;;
13641;SDS011;6894;52.196;9.904;2024-02-26T11:59:48;2.00;;;1.90;;
13641;SDS011;6894;52.196;9.904;2024-02-26T12:05:08;2.80;;;2.40;;
13641;SDS011;6894;52.196;9.904;2024-02-26T12:07:39;3.37;;;2.90;;
13641;SDS011;6894;52.196;9.904;2024-02-26T12:10:25;4.53;;;2.80;;
13641;SDS011;6894;52.196;9.904;2024-02-26T12:12:54;3.27;;;2.97;;
13641;SDS011;6894;52.196;9.904;2024-02-26T12:15:29;3.27;;;2.97;;
13641;SDS011;6894;52.196;9.904;2024-02-26T12:17:59;3.83;;;2.83;;
13641;SDS011;6894;52.196;9.904;2024-02-26T12:20:27;3.30;;;3.00;;
13641;SDS011;6894;52.196;9.904;2024-02-26T12:22:54;4.30;;;3.00;;
13641;SDS011;6894;52.196;9.904;2024-02-26T12:25:23;3.27;;;2.90;;
13641;SDS011;6894;52.196;9.904;2024-02-26T12:27:51;2.87;;;2.43;;
13641;SDS011;6894;52.196;9.904;2024-02-26T12:30:18;4.23;;;3.07;;
13641;SDS011;6894;52.196;9.904;2024-02-26T12:32:48;4.47;;;3.30;;
13641;SDS011;6894;52.196;9.904;2024-02-26T12:35:17;3.10;;;2.73;;
13641;SDS011;6894;52.196;9.904;2024-02-26T12:37:44;4.40;;;3.20;;
13641;SDS011;6894;52.196;9.904;2024-02-26T12:40:12;5.13;;;4.10;;
13641;SDS011;6894;52.196;9.904;2024-02-26T12:42:39;5.27;;;3.90;;
13641;SDS011;6894;52.196;9.904;2024-02-26T12:45:06;5.03;;;3.60;;
13641;SDS011;6894;52.196;9.904;2024-02-26T12:47:35;6.33;;;4.10;;
13641;SDS011;6894;52.196;9.904;2024-02-26T12:50:03;5.40;;;3.70;;
13641;SDS011;6894;52.196;9.904;2024-02-26T12:52:32;4.73;;;3.83;;
13641;SDS011;6894;52.196;9.904;2024-02-26T12:55:00;4.63;;;3.97;;
13641;SDS011;6894;52.196;9.904;2024-02-26T12:57:28;3.90;;;3.50;;
13641;SDS011;6894;52.196;9.904;2024-02-26T12:59:56;6.80;;;4.60;;
13641;SDS011;6894;52.196;9.904;2024-02-26T13:02:23;4.97;;;3.80;;
13641;SDS011;6894;52.196;9.904;2024-02-26T13:04:51;5.57;;;4.10;;
13641;SDS011;6894;52.196;9.904;2024-02-26T13:07:18;4.97;;;3.87;;
13641;SDS011;6894;52.196;9.904;2024-02-26T13:09:46;5.27;;;4.13;;
13641;SDS011;6894;52.196;9.904;2024-02-26T13:12:13;4.17;;;3.67;;
13641;SDS011;6894;52.196;9.904;2024-02-26T13:14:40;5.23;;;4.57;;
13641;SDS011;6894;52.196;9.904;2024-02-26T13:17:07;4.63;;;4.00;;
13641;SDS011;6894;52.196;9.904;2024-02-26T13:19:34;4.50;;;4.10;;
13641;SDS011;6894;52.196;9.904;2024-02-26T13:22:04;5.73;;;4.30;;
13641;SDS011;6894;52.196;9.904;2024-02-26T13:24:32;5.20;;;4.60;;
13641;SDS011;6894;52.196;9.904;2024-02-26T13:27:00;6.90;;;4.53;;
13641;SDS011;6894;52.196;9.904;2024-02-26T13:29:28;5.20;;;4.70;;
13641;SDS011;6894;52.196;9.904;2024-02-26T13:31:55;6.93;;;5.07;;
13641;SDS011;6894;52.196;9.904;2024-02-26T13:34:23;5.63;;;4.90;;
13641;SDS011;6894;52.196;9.904;2024-02-26T13:36:51;6.30;;;4.87;;
13641;SDS011;6894;52.196;9.904;2024-02-26T13:39:22;6.03;;;5.40;;
13641;SDS011;6894;52.196;9.904;2024-02-26T13:41:49;7.50;;;5.70;;
13641;SDS011;6894;52.196;9.904;2024-02-26T13:44:18;5.93;;;5.20;;
13641;SDS011;6894;52.196;9.904;2024-02-26T13:46:46;5.70;;;4.97;;
13641;SDS011;6894;52.196;9.904;2024-02-26T13:49:14;5.80;;;5.13;;
13641;SDS011;6894;52.196;9.904;2024-02-26T13:51:41;6.47;;;5.40;;
13641;SDS011;6894;52.196;9.904;2024-02-26T13:54:08;6.50;;;5.80;;
13641;SDS011;6894;52.196;9.904;2024-02-26T13:56:36;6.73;;;5.27;;
13641;SDS011;6894;52.196;9.904;2024-02-26T13:59:03;7.53;;;5.50;;
13641;SDS011;6894;52.196;9.904;2024-02-26T14:01:32;6.17;;;5.57;;
13641;SDS011;6894;52.196;9.904;2024-02-26T14:03:59;5.83;;;5.10;;
13641;SDS011;6894;52.196;9.904;2024-02-26T14:06:27;6.37;;;5.77;;
13641;SDS011;6894;52.196;9.904;2024-02-26T14:08:55;5.73;;;5.23;;
13641;SDS011;6894;52.196;9.904;2024-02-26T14:11:22;6.37;;;5.43;;
13641;SDS011;6894;52.196;9.904;2024-02-26T14:13:50;6.57;;;5.97;;
13641;SDS011;6894;52.196;9.904;2024-02-26T14:16:17;6.47;;;5.87;;
13641;SDS011;6894;52.196;9.904;2024-02-26T14:18:46;6.07;;;5.53;;
13641;SDS011;6894;52.196;9.904;2024-02-26T14:21:13;7.07;;;6.23;;
13641;SDS011;6894;52.196;9.904;2024-02-26T14:23:40;7.17;;;5.83;;
13641;SDS011;6894;52.196;9.904;2024-02-26T14:26:09;6.50;;;5.53;;
13641;SDS011;6894;52.196;9.904;2024-02-26T14:28:36;5.83;;;5.23;;
13641;SDS011;6894;52.196;9.904;2024-02-26T14:31:03;7.30;;;5.67;;
13641;SDS011;6894;52.196;9.904;2024-02-26T14:33:32;6.77;;;6.07;;
13641;SDS011;6894;52.196;9.904;2024-02-26T14:36:00;6.07;;;5.43;;
13641;SDS011;6894;52.196;9.904;2024-02-26T14:38:27;6.57;;;5.90;;
13641;SDS011;6894;52.196;9.904;2024-02-26T14:40:53;5.97;;;5.37;;
13641;SDS011;6894;52.196;9.904;2024-02-26T14:43:20;6.73;;;5.53;;
13641;SDS011;6894;52.196;9.904;2024-02-26T14:45:47;6.20;;;5.60;;
13641;SDS011;6894;52.196;9.904;2024-02-26T14:48:14;6.23;;;5.73;;
13641;SDS011;6894;52.196;9.904;2024-02-26T14:50:40;7.30;;;6.47;;
13641;SDS011;6894;52.196;9.904;2024-02-26T14:53:08;6.10;;;5.50;;
13641;SDS011;6894;52.196;9.904;2024-02-26T14:55:35;6.47;;;5.87;;
13641;SDS011;6894;52.196;9.904;2024-02-26T14:58:02;7.17;;;6.17;;
13641;SDS011;6894;52.196;9.904;2024-02-26T15:00:29;6.43;;;5.83;;
13641;SDS011;6894;52.196;9.904;2024-02-26T15:02:58;6.57;;;5.90;;
13641;SDS011;6894;52.196;9.904;2024-02-26T15:05:25;6.83;;;6.10;;